createdAt,value
2019-05-23T00:04:05.926Z,15
2019-05-23T00:09:23.828Z,14
2019-05-23T00:14:43.104Z,14
2019-05-23T00:19:58.179Z,14
2019-05-23T00:20:34.885Z,14
2019-05-23T00:25:47.292Z,14
2019-05-23T00:31:03.465Z,14
2019-05-23T00:36:15.934Z,14
2019-05-23T00:41:29.397Z,14
2019-05-23T00:46:47.484Z,14
2019-05-23T00:52:03.373Z,14
2019-05-23T00:57:19.220Z,14
2019-05-23T01:02:35.979Z,14
2019-05-23T01:07:51.242Z,14
2019-05-23T01:13:07.197Z,14
2019-05-23T01:18:21.875Z,14
2019-05-23T01:23:37.959Z,14
2019-05-23T01:28:51.093Z,14
2019-05-23T01:34:07.708Z,14
2019-05-23T01:39:22.610Z,14
2019-05-23T01:44:38.548Z,14
2019-05-23T01:49:52.948Z,14
2019-05-23T02:00:22.094Z,13
2019-05-23T02:10:49.987Z,13
2019-05-23T02:16:06.228Z,13
2019-05-23T02:21:22.404Z,13
2019-05-23T02:26:36.607Z,13
2019-05-23T02:31:50.583Z,13
2019-05-23T02:42:20.023Z,13
2019-05-23T02:47:34.856Z,13
2019-05-23T02:52:50.452Z,13
2019-05-23T02:58:05.148Z,13
2019-05-23T03:03:20.182Z,13
2019-05-23T03:08:36.591Z,13
2019-05-23T03:14:30.559Z,13
2019-05-23T03:19:43.419Z,13
2019-05-23T03:24:56.467Z,13
2019-05-23T03:30:13.156Z,13
2019-05-23T03:35:24.992Z,13
2019-05-23T03:40:41.102Z,13
2019-05-23T03:45:54.886Z,13
2019-05-23T03:51:11.102Z,13
2019-05-23T03:56:24.780Z,13
2019-05-23T04:01:49.653Z,13
2019-05-23T04:07:03.026Z,13
2019-05-23T04:12:18.810Z,13
2019-05-23T04:17:33.671Z,13
2019-05-23T04:22:48.787Z,14
2019-05-23T04:28:04.110Z,14
2019-05-23T04:33:16.691Z,14
2019-05-23T04:38:37.081Z,14
2019-05-23T04:43:51.936Z,14
2019-05-23T04:49:08.136Z,14
2019-05-23T04:54:21.990Z,15
2019-05-23T04:59:37.627Z,15
2019-05-23T05:04:56.835Z,16
2019-05-23T05:10:14.588Z,18
2019-05-23T05:15:34.007Z,20
2019-05-23T05:20:50.227Z,22
2019-05-23T05:26:06.954Z,23
2019-05-23T05:31:23.022Z,24
2019-05-23T05:36:39.105Z,24
2019-05-23T06:39:46.511Z,20
2019-05-23T06:45:06.961Z,20
2019-05-23T06:50:25.886Z,20
2019-05-23T07:01:03.315Z,20
2019-05-23T07:06:17.960Z,20
2019-05-23T07:11:34.260Z,20
2019-05-23T07:16:51.053Z,20
2019-05-23T07:27:20.739Z,21
2019-05-23T07:32:36.657Z,21
2019-05-23T07:37:53.061Z,21
2019-05-23T07:43:08.309Z,21
2019-05-23T07:48:23.800Z,22
2019-05-23T07:53:36.459Z,21
2019-05-23T07:54:14.779Z,21
2019-05-23T07:59:30.185Z,22
2019-05-23T08:04:46.967Z,22
2019-05-23T08:20:31.326Z,22
2019-05-23T08:25:49.372Z,22
2019-05-23T08:31:04.890Z,22
2019-05-23T08:46:48.098Z,22
2019-05-23T08:52:03.689Z,22
2019-05-23T08:57:17.064Z,22
2019-05-23T09:02:34.578Z,23
2019-05-23T09:07:50.821Z,23
2019-05-23T09:18:23.210Z,23
2019-05-23T09:39:18.747Z,23
2019-05-23T09:44:34.548Z,23
2019-05-23T09:49:54.650Z,23
2019-05-23T09:55:10.905Z,24
2019-05-23T10:00:27.722Z,24
2019-05-23T10:05:44.748Z,25
2019-05-23T10:10:59.424Z,25
2019-05-23T10:37:09.190Z,24
2019-05-23T10:42:26.726Z,24
2019-05-23T10:52:54.840Z,25
2019-05-23T11:08:39.662Z,25
2019-05-23T11:13:55.494Z,25
2019-05-23T11:29:38.288Z,25
2019-05-23T11:34:56.781Z,25
2019-05-23T11:51:07.478Z,25
2019-05-23T12:01:37.599Z,25
2019-05-23T12:06:57.080Z,26
2019-05-23T12:22:43.511Z,26
2019-05-23T12:28:00.363Z,26
2019-05-23T12:33:15.836Z,27
2019-05-23T12:38:31.598Z,27
2019-05-23T12:59:30.061Z,28
2019-05-23T13:04:47.180Z,29
2019-05-23T13:20:30.801Z,29
2019-05-23T13:36:14.620Z,30
2019-05-23T14:02:26.803Z,31
2019-05-23T14:54:48.970Z,30
2019-05-23T15:05:20.395Z,30
2019-05-23T15:21:02.807Z,30
2019-05-23T16:13:26.708Z,28
2019-05-23T17:31:57.681Z,22
2019-05-23T17:37:13.750Z,22
2019-05-23T17:47:45.652Z,21
2019-05-23T17:53:01.120Z,21
2019-05-23T17:58:16.983Z,21
2019-05-23T18:03:32.648Z,20
2019-05-23T18:08:48.909Z,20
2019-05-23T18:14:04.972Z,20
2019-05-23T18:19:21.599Z,20
2019-05-23T18:24:37.200Z,19
2019-05-23T18:29:51.201Z,19
2019-05-23T18:35:07.332Z,19
2019-05-23T18:40:20.782Z,19
2019-05-23T18:45:36.779Z,19
2019-05-23T18:50:51.574Z,19
2019-05-23T18:57:01.091Z,19
2019-05-23T19:02:19.236Z,19
2019-05-23T19:07:36.009Z,19
2019-05-23T19:12:50.861Z,19
2019-05-23T19:18:05.722Z,18
2019-05-23T19:23:20.789Z,18
2019-05-23T19:28:36.285Z,18
2019-05-23T19:33:50.233Z,17
2019-05-23T19:39:05.949Z,17
2019-05-23T19:44:20.740Z,17
2019-05-23T19:49:36.698Z,17
2019-05-23T19:54:51.858Z,17
2019-05-23T20:00:06.900Z,17
2019-05-23T20:05:22.806Z,17
2019-05-23T20:10:37.250Z,17
2019-05-23T20:15:52.992Z,16
2019-05-23T20:21:09.469Z,17
2019-05-23T20:26:24.022Z,17
2019-05-23T20:31:41.011Z,17
2019-05-23T20:36:55.973Z,16
2019-05-23T20:42:12.533Z,16
2019-05-23T20:47:27.604Z,16
2019-05-23T20:52:41.801Z,16
2019-05-23T20:57:57.700Z,16
2019-05-23T21:03:12.350Z,16
2019-05-23T21:08:28.715Z,16
2019-05-23T21:13:43.318Z,16
2019-05-23T21:19:00.462Z,16
2019-05-23T21:24:17.141Z,16
2019-05-23T21:29:32.070Z,16
2019-05-23T21:34:46.822Z,16
2019-05-23T21:40:01.625Z,16
2019-05-23T21:45:17.361Z,16
2019-05-23T21:50:32.163Z,16
2019-05-23T21:55:47.084Z,15
2019-05-23T22:01:01.589Z,15
2019-05-23T22:06:16.582Z,15
2019-05-23T22:11:31.600Z,15
2019-05-23T22:16:46.762Z,15
2019-05-23T22:22:01.525Z,15
2019-05-23T22:27:16.992Z,15
2019-05-23T22:32:32.450Z,14
2019-05-23T22:37:47.562Z,14
2019-05-23T22:43:02.573Z,14
2019-05-23T22:48:16.456Z,14
2019-05-23T22:53:32.964Z,14
2019-05-23T22:58:47.686Z,14
2019-05-23T23:04:03.896Z,14
2019-05-23T23:09:20.100Z,14
2019-05-23T23:14:36.354Z,14
2019-05-23T23:19:52.602Z,14
2019-05-23T23:25:05.228Z,14
2019-05-23T23:30:22.907Z,14
2019-05-23T23:35:36.331Z,14
2019-05-23T23:40:51.876Z,14
2019-05-23T23:46:07.061Z,14
2019-05-23T23:51:22.235Z,14
2019-05-23T23:56:37.731Z,14
